HALF-HOURLY OBSERVATIONS INDEX

082

Northeast - Lower

HUNTERS HILL

Site: 082139
Alt: 981.0m
32km W of CORRYONG


  Time     Wind        Temp  DP   Baro     Rain since   Rain past  Vis(m), Cloud(base in m), Weather
  local        km/h                         9am  last   hr   10m    
Mon 11:00    W  4/  9  23.6  8.5  ------    0.0   0.0   0.0   0.0   ----- 
Mon 11:30    W  4/  9  24.6  9.3  ------    0.0   0.0   0.0   0.0   ----- 
Mon 12:00  WSW  4/ 11  24.9  9.6  ------    0.0   0.0   0.0   0.0   ----- 
Mon 12:30   SW  6/ 15  25.3 10.0  ------    0.0   0.0   0.0   0.0   ----- 
Mon 13:00    W  7/ 15  25.2  9.9  ------    0.0   0.0   0.0   0.0   ----- 
Mon 13:30  WSW  7/ 17  25.4 10.1  ------    0.0   0.0   0.0   0.0   ----- 
Mon 14:00   SW  6/  9  26.4 10.9  ------    0.0   0.0   0.0   0.0   ----- 
Mon 14:30  WSW  7/ 19  26.1 10.7  ------    0.0   0.0   0.0   0.0   ----- 
Mon 15:00  WSW  6/ 11  27.3 11.7  ------    0.0   0.0   0.0   0.0   ----- 
Mon 15:30  WSW  6/ 11  27.7 12.1  ------    0.0   0.0   0.0   0.0   ----- 
Mon 16:00  WSW  6/  9  27.0 11.5  ------    0.0   0.0   0.0   0.0   ----- 
Mon 16:30   SW  4/  9  26.9 11.4  ------    0.0   0.0   0.0   0.0   ----- 

RUTHERGLEN RESEARCH

Site: 082039
Alt: 175.0m
33km NNE of WANGARATTA


  Time     Wind        Temp  DP   Baro     Rain since   Rain past  Vis(m), Cloud(base in m), Weather
  local        km/h                         9am  last   hr   10m    
Mon 11:00   SW  9/ 17  27.7 13.6  ------    0.0   0.0   0.0   0.0   ----- 
Mon 11:30  WSW 13/ 20  28.6 13.3  ------    0.0   0.0   0.0   0.0   ----- 
Mon 12:00   SW 15/ 22  29.6 11.2  ------    0.0   0.0   0.0   0.0   ----- 
Mon 12:30  SSW 13/ 20  30.5 10.5  ------    0.0   0.0   0.0   0.0   ----- 
Mon 13:00    W 17/ 28  30.9  8.0  ------    0.0   0.0   0.0   0.0   ----- 
Mon 13:30   SW 13/ 24  31.1  6.2  ------    0.0   0.0   0.0   0.0   ----- 
Mon 14:00   NW 11/ 17  32.2  6.4  ------    0.0   0.0   0.0   0.0   ----- 
Mon 14:30   SE  9/ 15  32.8  7.6  ------    0.0   0.0   0.0   0.0   ----- 
Mon 15:00    W  9/ 20  32.7  6.1  ------    0.0   0.0   0.0   0.0   ----- 
Mon 15:30  SSW 13/ 20  33.5  5.1  ------    0.0   0.0   0.0   0.0   ----- 
Mon 16:00  WSW 13/ 24  32.9  4.6  ------    0.0   0.0   0.0   0.0   ----- 
Mon 16:30  WSW 13/ 26  33.1  5.6  ------    0.0   0.0   0.0   0.0   ----- 

WANGARATTA AERO

Site: 082138
Alt: 152.6m
7km S of WANGARATTA


  Time     Wind        Temp  DP   Baro     Rain since   Rain past  Vis(m), Cloud(base in m), Weather
  local        km/h                         9am  last   hr   10m    
Mon 11:00   SW  7/ 15  25.9 13.1  1015.6    0.0   0.0   0.0   0.0   10000 
Mon 11:30   SW  9/ 15  26.9 11.8  1015.4    0.0   0.0   0.0   0.0   10000 
Mon 12:00   SW  9/ 15  28.6  8.3  1015.2    0.0   0.0   0.0   0.0   10000 
Mon 12:30   SW 11/ 19  29.1  9.3  1014.9    0.0   0.0   0.0   0.0   10000 
Mon 13:00    W  9/ 17  29.5  8.5  1014.6    0.0   0.0   0.0   0.0   10000 
Mon 13:30    W  7/ 13  30.8  9.1  1014.5    0.0   0.0   0.0   0.0   10000 
Mon 14:00    S  9/ 15  30.2  9.1  1014.2    0.0   0.0   0.0   0.0   10000 
Mon 14:30   SW  9/ 19  30.7 11.1  1013.9    0.0   0.0   0.0   0.0   10000 
Mon 15:00  WSW  7/ 15  31.4 11.2  1013.5    0.0   0.0   0.0   0.0   10000 
Mon 15:30   SW 19/ 28  31.2 11.1  1013.3    0.0   0.0   0.0   0.0   10000 
Mon 16:00    W 15/ 22  31.1  9.9  1013.0    0.0   0.0   0.0   0.0   10000 
Mon 16:30    W  9/ 15  31.4 11.2  1012.7    0.0   0.0   0.0   0.0   10000